sensor_id;sensor_type;location;lat;lon;timestamp;temperature;humidity
3709;DHT22;1870;53.996;10.784;2023-05-19T00:01:23;10.00;99.90
3709;DHT22;1870;53.996;10.784;2023-05-19T00:03:54;10.00;99.90
3709;DHT22;1870;53.996;10.784;2023-05-19T00:06:29;10.00;99.90
3709;DHT22;1870;53.996;10.784;2023-05-19T00:09:03;9.90;99.90
3709;DHT22;1870;53.996;10.784;2023-05-19T00:11:29;9.80;99.90
3709;DHT22;1870;53.996;10.784;2023-05-19T00:13:57;9.80;99.90
3709;DHT22;1870;53.996;10.784;2023-05-19T00:16:26;9.80;99.90
3709;DHT22;1870;53.996;10.784;2023-05-19T00:18:52;9.80;99.90
3709;DHT22;1870;53.996;10.784;2023-05-19T00:21:19;9.80;99.90
3709;DHT22;1870;53.996;10.784;2023-05-19T00:23:45;9.90;99.90
3709;DHT22;1870;53.996;10.784;2023-05-19T00:26:11;9.90;99.90
3709;DHT22;1870;53.996;10.784;2023-05-19T00:28:36;9.90;99.90
3709;DHT22;1870;53.996;10.784;2023-05-19T00:31:04;9.80;99.90
3709;DHT22;1870;53.996;10.784;2023-05-19T00:33:29;9.70;99.90
3709;DHT22;1870;53.996;10.784;2023-05-19T00:36:02;9.70;99.90
3709;DHT22;1870;53.996;10.784;2023-05-19T00:38:32;9.70;99.90
3709;DHT22;1870;53.996;10.784;2023-05-19T00:40:59;9.70;99.90
3709;DHT22;1870;53.996;10.784;2023-05-19T00:43:25;9.70;99.90
3709;DHT22;1870;53.996;10.784;2023-05-19T00:45:50;9.70;99.90
3709;DHT22;1870;53.996;10.784;2023-05-19T00:48:16;9.70;99.90
3709;DHT22;1870;53.996;10.784;2023-05-19T00:50:45;9.80;99.90
3709;DHT22;1870;53.996;10.784;2023-05-19T00:53:12;9.70;99.90
3709;DHT22;1870;53.996;10.784;2023-05-19T00:55:39;9.70;99.90
3709;DHT22;1870;53.996;10.784;2023-05-19T00:58:06;9.70;99.90
3709;DHT22;1870;53.996;10.784;2023-05-19T01:00:33;9.70;99.90
3709;DHT22;1870;53.996;10.784;2023-05-19T01:02:59;9.70;99.90
3709;DHT22;1870;53.996;10.784;2023-05-19T01:05:25;9.80;99.90
3709;DHT22;1870;53.996;10.784;2023-05-19T01:07:51;9.70;99.90
3709;DHT22;1870;53.996;10.784;2023-05-19T01:10:21;9.70;99.90
3709;DHT22;1870;53.996;10.784;2023-05-19T01:12:47;9.80;99.90
3709;DHT22;1870;53.996;10.784;2023-05-19T01:15:13;9.70;99.90
3709;DHT22;1870;53.996;10.784;2023-05-19T01:17:58;9.70;99.90
3709;DHT22;1870;53.996;10.784;2023-05-19T01:20:34;9.70;99.90
3709;DHT22;1870;53.996;10.784;2023-05-19T01:27:03;9.70;99.90
3709;DHT22;1870;53.996;10.784;2023-05-19T01:29:40;9.70;99.90
3709;DHT22;1870;53.996;10.784;2023-05-19T01:32:06;9.70;99.90
3709;DHT22;1870;53.996;10.784;2023-05-19T01:34:38;9.70;99.90
3709;DHT22;1870;53.996;10.784;2023-05-19T01:37:04;9.70;99.90
3709;DHT22;1870;53.996;10.784;2023-05-19T01:39:32;9.70;99.90
3709;DHT22;1870;53.996;10.784;2023-05-19T01:41:59;9.80;99.90
3709;DHT22;1870;53.996;10.784;2023-05-19T01:44:26;9.70;99.90
3709;DHT22;1870;53.996;10.784;2023-05-19T01:46:52;9.70;99.90
3709;DHT22;1870;53.996;10.784;2023-05-19T01:49:18;9.70;99.90
3709;DHT22;1870;53.996;10.784;2023-05-19T01:51:44;9.70;99.90
3709;DHT22;1870;53.996;10.784;2023-05-19T01:54:09;9.70;99.90
3709;DHT22;1870;53.996;10.784;2023-05-19T01:56:49;9.70;99.90
3709;DHT22;1870;53.996;10.784;2023-05-19T01:59:46;9.70;99.90
3709;DHT22;1870;53.996;10.784;2023-05-19T02:02:52;9.70;99.90
3709;DHT22;1870;53.996;10.784;2023-05-19T02:05:36;9.70;99.90
3709;DHT22;1870;53.996;10.784;2023-05-19T02:08:12;9.70;99.90
3709;DHT22;1870;53.996;10.784;2023-05-19T02:10:40;9.60;99.90
3709;DHT22;1870;53.996;10.784;2023-05-19T02:13:11;9.60;99.90
3709;DHT22;1870;53.996;10.784;2023-05-19T02:15:39;9.60;99.90
3709;DHT22;1870;53.996;10.784;2023-05-19T02:18:10;9.60;99.90
3709;DHT22;1870;53.996;10.784;2023-05-19T02:20:37;9.60;99.90
3709;DHT22;1870;53.996;10.784;2023-05-19T02:23:03;9.40;99.90
3709;DHT22;1870;53.996;10.784;2023-05-19T02:25:29;9.40;99.90
3709;DHT22;1870;53.996;10.784;2023-05-19T02:27:54;9.40;99.90
3709;DHT22;1870;53.996;10.784;2023-05-19T02:30:20;9.40;99.90
3709;DHT22;1870;53.996;10.784;2023-05-19T02:32:48;9.40;99.90
3709;DHT22;1870;53.996;10.784;2023-05-19T02:35:14;9.40;99.90
3709;DHT22;1870;53.996;10.784;2023-05-19T02:37:40;9.30;99.90
3709;DHT22;1870;53.996;10.784;2023-05-19T02:40:07;9.30;99.90
3709;DHT22;1870;53.996;10.784;2023-05-19T02:42:32;9.30;99.90
3709;DHT22;1870;53.996;10.784;2023-05-19T02:44:59;9.30;99.90
3709;DHT22;1870;53.996;10.784;2023-05-19T02:47:25;9.40;99.90
3709;DHT22;1870;53.996;10.784;2023-05-19T02:49:53;9.40;99.90
3709;DHT22;1870;53.996;10.784;2023-05-19T02:52:19;9.30;99.90
3709;DHT22;1870;53.996;10.784;2023-05-19T02:54:44;9.30;99.90
3709;DHT22;1870;53.996;10.784;2023-05-19T02:57:10;9.40;99.90
3709;DHT22;1870;53.996;10.784;2023-05-19T02:59:36;9.50;99.90
3709;DHT22;1870;53.996;10.784;2023-05-19T03:02:02;9.40;99.90
3709;DHT22;1870;53.996;10.784;2023-05-19T03:04:28;9.50;99.90
3709;DHT22;1870;53.996;10.784;2023-05-19T03:06:56;9.50;99.90
3709;DHT22;1870;53.996;10.784;2023-05-19T03:09:22;9.60;99.90
3709;DHT22;1870;53.996;10.784;2023-05-19T03:11:47;9.50;99.90
3709;DHT22;1870;53.996;10.784;2023-05-19T03:14:16;9.50;99.90
3709;DHT22;1870;53.996;10.784;2023-05-19T03:16:43;9.50;99.90
3709;DHT22;1870;53.996;10.784;2023-05-19T03:19:08;9.60;99.90
3709;DHT22;1870;53.996;10.784;2023-05-19T03:21:34;9.70;99.90
3709;DHT22;1870;53.996;10.784;2023-05-19T03:24:00;9.70;99.90
3709;DHT22;1870;53.996;10.784;2023-05-19T03:26:26;9.70;99.90
3709;DHT22;1870;53.996;10.784;2023-05-19T03:28:55;9.80;99.90
3709;DHT22;1870;53.996;10.784;2023-05-19T03:31:20;9.70;99.90
3709;DHT22;1870;53.996;10.784;2023-05-19T03:33:46;9.90;99.90
3709;DHT22;1870;53.996;10.784;2023-05-19T03:36:11;9.90;99.90
3709;DHT22;1870;53.996;10.784;2023-05-19T03:38:37;10.10;99.90
3709;DHT22;1870;53.996;10.784;2023-05-19T03:41:03;10.20;99.90
3709;DHT22;1870;53.996;10.784;2023-05-19T03:43:28;10.30;99.90
3709;DHT22;1870;53.996;10.784;2023-05-19T03:45:55;10.50;99.90
3709;DHT22;1870;53.996;10.784;2023-05-19T03:48:20;10.40;99.90
3709;DHT22;1870;53.996;10.784;2023-05-19T03:50:46;10.60;99.90
3709;DHT22;1870;53.996;10.784;2023-05-19T03:53:12;10.70;99.90
3709;DHT22;1870;53.996;10.784;2023-05-19T03:55:38;10.70;99.90
3709;DHT22;1870;53.996;10.784;2023-05-19T03:58:06;10.80;99.90
3709;DHT22;1870;53.996;10.784;2023-05-19T04:00:32;10.80;99.90
3709;DHT22;1870;53.996;10.784;2023-05-19T04:02:57;10.90;99.90
3709;DHT22;1870;53.996;10.784;2023-05-19T04:05:24;11.00;99.90
3709;DHT22;1870;53.996;10.784;2023-05-19T04:07:50;11.10;99.90
3709;DHT22;1870;53.996;10.784;2023-05-19T04:10:16;11.10;99.90
3709;DHT22;1870;53.996;10.784;2023-05-19T04:12:41;11.20;99.90
3709;DHT22;1870;53.996;10.784;2023-05-19T04:15:07;11.20;99.90
3709;DHT22;1870;53.996;10.784;2023-05-19T04:17:35;11.30;99.90
3709;DHT22;1870;53.996;10.784;2023-05-19T04:20:01;11.30;99.90
3709;DHT22;1870;53.996;10.784;2023-05-19T04:22:27;11.40;99.90
3709;DHT22;1870;53.996;10.784;2023-05-19T04:24:52;11.50;99.90
3709;DHT22;1870;53.996;10.784;2023-05-19T04:27:18;11.60;99.90
3709;DHT22;1870;53.996;10.784;2023-05-19T04:29:43;11.70;99.90
3709;DHT22;1870;53.996;10.784;2023-05-19T04:32:10;11.80;99.90
3709;DHT22;1870;53.996;10.784;2023-05-19T04:34:36;12.00;99.90
3709;DHT22;1870;53.996;10.784;2023-05-19T04:37:06;12.00;99.90
3709;DHT22;1870;53.996;10.784;2023-05-19T04:39:32;11.90;99.90
3709;DHT22;1870;53.996;10.784;2023-05-19T04:41:58;12.00;99.90
3709;DHT22;1870;53.996;10.784;2023-05-19T04:44:24;12.00;99.90
3709;DHT22;1870;53.996;10.784;2023-05-19T04:46:50;12.00;99.90
3709;DHT22;1870;53.996;10.784;2023-05-19T04:49:18;12.10;99.90
3709;DHT22;1870;53.996;10.784;2023-05-19T04:51:44;12.10;99.90
3709;DHT22;1870;53.996;10.784;2023-05-19T04:54:10;12.10;99.90
3709;DHT22;1870;53.996;10.784;2023-05-19T04:56:36;12.00;99.90
3709;DHT22;1870;53.996;10.784;2023-05-19T04:59:02;12.00;99.90
3709;DHT22;1870;53.996;10.784;2023-05-19T05:01:28;12.00;99.90
3709;DHT22;1870;53.996;10.784;2023-05-19T05:03:55;12.10;99.90
3709;DHT22;1870;53.996;10.784;2023-05-19T05:06:23;12.20;99.90
3709;DHT22;1870;53.996;10.784;2023-05-19T05:08:49;12.30;99.90
3709;DHT22;1870;53.996;10.784;2023-05-19T05:11:18;12.30;99.90
3709;DHT22;1870;53.996;10.784;2023-05-19T05:13:44;12.30;99.90
3709;DHT22;1870;53.996;10.784;2023-05-19T05:16:10;12.40;99.90
3709;DHT22;1870;53.996;10.784;2023-05-19T05:18:36;12.50;99.90
3709;DHT22;1870;53.996;10.784;2023-05-19T05:21:06;12.50;99.90
3709;DHT22;1870;53.996;10.784;2023-05-19T05:23:32;12.70;99.90
3709;DHT22;1870;53.996;10.784;2023-05-19T05:25:58;12.70;99.90
3709;DHT22;1870;53.996;10.784;2023-05-19T05:28:24;12.70;99.90
3709;DHT22;1870;53.996;10.784;2023-05-19T05:30:49;12.80;99.90
3709;DHT22;1870;53.996;10.784;2023-05-19T05:33:15;12.90;99.90
3709;DHT22;1870;53.996;10.784;2023-05-19T05:35:42;12.90;99.90
3709;DHT22;1870;53.996;10.784;2023-05-19T05:38:08;12.90;99.90
3709;DHT22;1870;53.996;10.784;2023-05-19T05:40:35;12.80;99.90
3709;DHT22;1870;53.996;10.784;2023-05-19T05:43:01;12.90;99.90
3709;DHT22;1870;53.996;10.784;2023-05-19T05:45:26;13.10;99.90
3709;DHT22;1870;53.996;10.784;2023-05-19T05:47:53;13.10;99.90
3709;DHT22;1870;53.996;10.784;2023-05-19T05:50:19;13.20;99.90
3709;DHT22;1870;53.996;10.784;2023-05-19T05:52:48;13.40;99.90
3709;DHT22;1870;53.996;10.784;2023-05-19T05:55:15;13.60;99.90
3709;DHT22;1870;53.996;10.784;2023-05-19T05:57:44;13.70;99.90
3709;DHT22;1870;53.996;10.784;2023-05-19T06:00:10;13.70;99.90
3709;DHT22;1870;53.996;10.784;2023-05-19T06:02:43;13.70;99.90
3709;DHT22;1870;53.996;10.784;2023-05-19T06:05:10;13.70;99.90
3709;DHT22;1870;53.996;10.784;2023-05-19T06:07:37;13.80;99.90
3709;DHT22;1870;53.996;10.784;2023-05-19T06:10:04;13.80;99.90
3709;DHT22;1870;53.996;10.784;2023-05-19T06:12:29;13.70;99.90
3709;DHT22;1870;53.996;10.784;2023-05-19T06:14:55;13.50;99.90
3709;DHT22;1870;53.996;10.784;2023-05-19T06:17:21;13.60;99.90
3709;DHT22;1870;53.996;10.784;2023-05-19T06:19:46;13.60;99.90
3709;DHT22;1870;53.996;10.784;2023-05-19T06:22:12;13.60;99.90
3709;DHT22;1870;53.996;10.784;2023-05-19T06:24:38;13.50;99.90
3709;DHT22;1870;53.996;10.784;2023-05-19T06:27:03;13.40;99.90
3709;DHT22;1870;53.996;10.784;2023-05-19T06:29:29;13.50;99.90
3709;DHT22;1870;53.996;10.784;2023-05-19T06:31:55;13.50;99.90
3709;DHT22;1870;53.996;10.784;2023-05-19T06:34:20;13.60;99.90
3709;DHT22;1870;53.996;10.784;2023-05-19T06:36:46;13.80;99.90
3709;DHT22;1870;53.996;10.784;2023-05-19T06:39:12;13.90;99.90
3709;DHT22;1870;53.996;10.784;2023-05-19T06:41:37;13.90;99.90
3709;DHT22;1870;53.996;10.784;2023-05-19T06:44:05;14.10;99.90
3709;DHT22;1870;53.996;10.784;2023-05-19T06:46:33;14.20;99.90
3709;DHT22;1870;53.996;10.784;2023-05-19T06:48:59;14.20;99.90
3709;DHT22;1870;53.996;10.784;2023-05-19T06:51:25;14.30;99.90
3709;DHT22;1870;53.996;10.784;2023-05-19T06:53:51;14.20;99.90
3709;DHT22;1870;53.996;10.784;2023-05-19T06:56:17;14.20;99.90
3709;DHT22;1870;53.996;10.784;2023-05-19T06:58:44;14.10;99.90
3709;DHT22;1870;53.996;10.784;2023-05-19T07:01:10;14.00;99.90
3709;DHT22;1870;53.996;10.784;2023-05-19T07:03:36;14.20;99.90
3709;DHT22;1870;53.996;10.784;2023-05-19T07:06:02;14.20;99.90
3709;DHT22;1870;53.996;10.784;2023-05-19T07:08:27;14.20;99.90
3709;DHT22;1870;53.996;10.784;2023-05-19T07:10:53;14.20;99.90
3709;DHT22;1870;53.996;10.784;2023-05-19T07:13:20;14.20;99.90
3709;DHT22;1870;53.996;10.784;2023-05-19T07:15:46;14.40;99.90
3709;DHT22;1870;53.996;10.784;2023-05-19T07:18:13;14.40;99.90
3709;DHT22;1870;53.996;10.784;2023-05-19T07:20:39;14.50;99.90
3709;DHT22;1870;53.996;10.784;2023-05-19T07:23:05;14.60;99.90
3709;DHT22;1870;53.996;10.784;2023-05-19T07:25:31;14.70;99.90
3709;DHT22;1870;53.996;10.784;2023-05-19T07:28:00;14.80;99.90
3709;DHT22;1870;53.996;10.784;2023-05-19T07:30:27;14.80;99.90
3709;DHT22;1870;53.996;10.784;2023-05-19T07:32:52;15.00;99.90
3709;DHT22;1870;53.996;10.784;2023-05-19T07:35:19;14.90;99.90
3709;DHT22;1870;53.996;10.784;2023-05-19T07:37:47;14.90;99.90
3709;DHT22;1870;53.996;10.784;2023-05-19T07:40:13;14.80;99.90
3709;DHT22;1870;53.996;10.784;2023-05-19T07:42:39;15.00;99.90
3709;DHT22;1870;53.996;10.784;2023-05-19T07:45:05;15.00;99.90
3709;DHT22;1870;53.996;10.784;2023-05-19T07:47:31;15.10;99.90
3709;DHT22;1870;53.996;10.784;2023-05-19T07:49:57;15.20;99.90
3709;DHT22;1870;53.996;10.784;2023-05-19T07:52:22;15.20;99.90
3709;DHT22;1870;53.996;10.784;2023-05-19T07:54:48;15.50;99.90
3709;DHT22;1870;53.996;10.784;2023-05-19T07:57:13;15.70;99.90
3709;DHT22;1870;53.996;10.784;2023-05-19T07:59:39;15.70;99.90
3709;DHT22;1870;53.996;10.784;2023-05-19T08:02:05;15.80;99.90
3709;DHT22;1870;53.996;10.784;2023-05-19T08:04:31;15.90;99.90
3709;DHT22;1870;53.996;10.784;2023-05-19T08:06:57;15.90;99.90
3709;DHT22;1870;53.996;10.784;2023-05-19T08:09:23;16.00;99.90
3709;DHT22;1870;53.996;10.784;2023-05-19T08:11:49;15.80;99.90
3709;DHT22;1870;53.996;10.784;2023-05-19T08:14:14;15.50;99.90
3709;DHT22;1870;53.996;10.784;2023-05-19T08:16:40;15.60;99.90
3709;DHT22;1870;53.996;10.784;2023-05-19T08:19:10;15.80;99.90
3709;DHT22;1870;53.996;10.784;2023-05-19T08:21:36;15.90;99.90
3709;DHT22;1870;53.996;10.784;2023-05-19T08:24:01;16.00;99.90
3709;DHT22;1870;53.996;10.784;2023-05-19T08:26:28;16.10;99.90
3709;DHT22;1870;53.996;10.784;2023-05-19T08:28:53;16.10;99.90
3709;DHT22;1870;53.996;10.784;2023-05-19T08:31:19;16.30;99.90
3709;DHT22;1870;53.996;10.784;2023-05-19T08:33:45;16.20;99.90
3709;DHT22;1870;53.996;10.784;2023-05-19T08:36:11;16.10;99.90
3709;DHT22;1870;53.996;10.784;2023-05-19T08:38:37;16.10;99.90
3709;DHT22;1870;53.996;10.784;2023-05-19T08:41:02;16.20;99.90
3709;DHT22;1870;53.996;10.784;2023-05-19T08:43:28;16.30;99.90
3709;DHT22;1870;53.996;10.784;2023-05-19T08:45:54;16.50;99.90
3709;DHT22;1870;53.996;10.784;2023-05-19T08:48:21;16.20;99.90
3709;DHT22;1870;53.996;10.784;2023-05-19T08:51:12;16.30;99.90
3709;DHT22;1870;53.996;10.784;2023-05-19T08:53:41;16.30;99.90
3709;DHT22;1870;53.996;10.784;2023-05-19T08:56:21;16.20;99.90
3709;DHT22;1870;53.996;10.784;2023-05-19T08:58:49;16.10;99.90
3709;DHT22;1870;53.996;10.784;2023-05-19T09:01:15;16.00;99.90
3709;DHT22;1870;53.996;10.784;2023-05-19T09:03:43;15.80;99.90
3709;DHT22;1870;53.996;10.784;2023-05-19T09:06:09;15.70;99.90
3709;DHT22;1870;53.996;10.784;2023-05-19T09:08:41;15.90;99.90
3709;DHT22;1870;53.996;10.784;2023-05-19T09:11:08;15.90;99.90
3709;DHT22;1870;53.996;10.784;2023-05-19T09:13:34;15.90;99.90
3709;DHT22;1870;53.996;10.784;2023-05-19T09:16:01;15.50;99.90
3709;DHT22;1870;53.996;10.784;2023-05-19T09:18:27;15.30;99.90
3709;DHT22;1870;53.996;10.784;2023-05-19T09:20:57;15.10;99.90
3709;DHT22;1870;53.996;10.784;2023-05-19T09:23:26;15.00;99.90
3709;DHT22;1870;53.996;10.784;2023-05-19T09:25:53;14.90;99.90
3709;DHT22;1870;53.996;10.784;2023-05-19T09:28:28;14.70;99.90
3709;DHT22;1870;53.996;10.784;2023-05-19T09:31:06;14.80;99.90
3709;DHT22;1870;53.996;10.784;2023-05-19T09:33:34;14.50;99.90
3709;DHT22;1870;53.996;10.784;2023-05-19T09:36:00;14.60;99.90
3709;DHT22;1870;53.996;10.784;2023-05-19T09:38:26;14.30;99.90
3709;DHT22;1870;53.996;10.784;2023-05-19T09:40:54;14.40;99.90
3709;DHT22;1870;53.996;10.784;2023-05-19T09:43:21;14.50;99.90
3709;DHT22;1870;53.996;10.784;2023-05-19T09:45:47;14.40;99.90
3709;DHT22;1870;53.996;10.784;2023-05-19T09:48:14;14.40;99.90
3709;DHT22;1870;53.996;10.784;2023-05-19T09:50:42;14.30;99.90
3709;DHT22;1870;53.996;10.784;2023-05-19T09:53:12;14.30;99.90
3709;DHT22;1870;53.996;10.784;2023-05-19T09:55:41;14.30;99.90
3709;DHT22;1870;53.996;10.784;2023-05-19T09:58:08;14.20;99.90
3709;DHT22;1870;53.996;10.784;2023-05-19T10:00:35;14.30;99.90
3709;DHT22;1870;53.996;10.784;2023-05-19T10:03:03;14.40;99.90
3709;DHT22;1870;53.996;10.784;2023-05-19T10:05:29;14.40;99.90
3709;DHT22;1870;53.996;10.784;2023-05-19T10:07:55;14.40;99.90
3709;DHT22;1870;53.996;10.784;2023-05-19T10:10:21;14.50;99.90
3709;DHT22;1870;53.996;10.784;2023-05-19T10:12:48;14.60;99.90
3709;DHT22;1870;53.996;10.784;2023-05-19T10:15:18;14.60;99.90
3709;DHT22;1870;53.996;10.784;2023-05-19T10:17:44;14.60;99.90
3709;DHT22;1870;53.996;10.784;2023-05-19T10:20:12;14.40;99.90
3709;DHT22;1870;53.996;10.784;2023-05-19T10:22:39;14.40;99.90
3709;DHT22;1870;53.996;10.784;2023-05-19T10:25:06;14.50;99.90
3709;DHT22;1870;53.996;10.784;2023-05-19T10:27:34;14.60;99.90
3709;DHT22;1870;53.996;10.784;2023-05-19T10:30:09;14.60;99.90
3709;DHT22;1870;53.996;10.784;2023-05-19T10:32:41;14.70;99.90
3709;DHT22;1870;53.996;10.784;2023-05-19T10:35:32;14.70;99.90
3709;DHT22;1870;53.996;10.784;2023-05-19T10:38:15;14.60;99.90
3709;DHT22;1870;53.996;10.784;2023-05-19T10:41:10;14.70;99.90
3709;DHT22;1870;53.996;10.784;2023-05-19T10:46:12;14.60;99.90
3709;DHT22;1870;53.996;10.784;2023-05-19T10:48:43;14.60;99.90
3709;DHT22;1870;53.996;10.784;2023-05-19T10:51:09;14.50;99.90
3709;DHT22;1870;53.996;10.784;2023-05-19T10:53:40;14.50;99.90
3709;DHT22;1870;53.996;10.784;2023-05-19T10:56:06;14.70;99.90
3709;DHT22;1870;53.996;10.784;2023-05-19T11:01:15;14.70;99.90
3709;DHT22;1870;53.996;10.784;2023-05-19T11:03:49;14.80;99.90
3709;DHT22;1870;53.996;10.784;2023-05-19T11:06:30;14.90;99.90
3709;DHT22;1870;53.996;10.784;2023-05-19T11:09:13;14.80;99.90
3709;DHT22;1870;53.996;10.784;2023-05-19T11:11:53;14.70;99.90
3709;DHT22;1870;53.996;10.784;2023-05-19T11:14:28;14.60;99.90
3709;DHT22;1870;53.996;10.784;2023-05-19T11:16:57;14.60;99.90
3709;DHT22;1870;53.996;10.784;2023-05-19T11:19:27;14.60;99.90
3709;DHT22;1870;53.996;10.784;2023-05-19T11:21:54;14.60;99.90
3709;DHT22;1870;53.996;10.784;2023-05-19T11:24:42;14.60;99.90
3709;DHT22;1870;53.996;10.784;2023-05-19T11:27:28;14.60;99.90
3709;DHT22;1870;53.996;10.784;2023-05-19T11:29:59;14.50;99.90
3709;DHT22;1870;53.996;10.784;2023-05-19T11:32:28;14.60;99.90
3709;DHT22;1870;53.996;10.784;2023-05-19T11:34:54;14.70;99.90
3709;DHT22;1870;53.996;10.784;2023-05-19T11:37:23;14.80;99.90
3709;DHT22;1870;53.996;10.784;2023-05-19T11:39:50;14.70;99.90
3709;DHT22;1870;53.996;10.784;2023-05-19T11:42:16;14.70;99.90
3709;DHT22;1870;53.996;10.784;2023-05-19T11:44:43;14.70;99.90
3709;DHT22;1870;53.996;10.784;2023-05-19T11:47:11;14.70;99.90
3709;DHT22;1870;53.996;10.784;2023-05-19T11:49:37;14.60;99.90
3709;DHT22;1870;53.996;10.784;2023-05-19T11:52:03;14.60;99.90
3709;DHT22;1870;53.996;10.784;2023-05-19T11:54:33;14.60;99.90
3709;DHT22;1870;53.996;10.784;2023-05-19T11:57:03;14.60;99.90
3709;DHT22;1870;53.996;10.784;2023-05-19T11:59:31;14.60;99.90
3709;DHT22;1870;53.996;10.784;2023-05-19T12:02:01;14.60;99.90
3709;DHT22;1870;53.996;10.784;2023-05-19T12:04:31;14.70;99.90
3709;DHT22;1870;53.996;10.784;2023-05-19T12:06:57;14.90;99.90
3709;DHT22;1870;53.996;10.784;2023-05-19T12:09:22;14.90;99.90
3709;DHT22;1870;53.996;10.784;2023-05-19T12:11:50;14.90;99.90
3709;DHT22;1870;53.996;10.784;2023-05-19T12:14:17;14.80;99.90
3709;DHT22;1870;53.996;10.784;2023-05-19T12:16:42;14.90;99.90
3709;DHT22;1870;53.996;10.784;2023-05-19T12:19:08;15.00;99.90
3709;DHT22;1870;53.996;10.784;2023-05-19T12:21:35;14.90;99.90
3709;DHT22;1870;53.996;10.784;2023-05-19T12:24:01;14.90;99.90
3709;DHT22;1870;53.996;10.784;2023-05-19T12:26:27;15.00;99.90
3709;DHT22;1870;53.996;10.784;2023-05-19T12:28:53;15.20;99.90
3709;DHT22;1870;53.996;10.784;2023-05-19T12:31:21;15.30;99.90
3709;DHT22;1870;53.996;10.784;2023-05-19T12:33:51;15.30;99.90
3709;DHT22;1870;53.996;10.784;2023-05-19T12:36:17;15.40;99.90
3709;DHT22;1870;53.996;10.784;2023-05-19T12:38:43;15.40;99.90
3709;DHT22;1870;53.996;10.784;2023-05-19T12:41:10;15.50;99.90
3709;DHT22;1870;53.996;10.784;2023-05-19T12:43:39;15.50;99.90
3709;DHT22;1870;53.996;10.784;2023-05-19T12:46:11;15.50;99.90
3709;DHT22;1870;53.996;10.784;2023-05-19T12:48:42;15.40;99.90
3709;DHT22;1870;53.996;10.784;2023-05-19T12:51:08;15.40;99.90
3709;DHT22;1870;53.996;10.784;2023-05-19T12:53:35;15.50;99.90
3709;DHT22;1870;53.996;10.784;2023-05-19T12:56:10;15.50;99.90
3709;DHT22;1870;53.996;10.784;2023-05-19T12:58:37;15.50;99.90
3709;DHT22;1870;53.996;10.784;2023-05-19T13:01:04;15.60;99.90
3709;DHT22;1870;53.996;10.784;2023-05-19T13:03:30;15.70;99.90
3709;DHT22;1870;53.996;10.784;2023-05-19T13:05:56;15.80;99.90
3709;DHT22;1870;53.996;10.784;2023-05-19T13:08:27;15.80;99.90
3709;DHT22;1870;53.996;10.784;2023-05-19T13:10:52;15.80;99.90
3709;DHT22;1870;53.996;10.784;2023-05-19T13:13:19;15.90;99.90
3709;DHT22;1870;53.996;10.784;2023-05-19T13:15:45;15.90;99.90
3709;DHT22;1870;53.996;10.784;2023-05-19T13:18:13;16.00;99.90
3709;DHT22;1870;53.996;10.784;2023-05-19T13:20:40;16.10;99.90
3709;DHT22;1870;53.996;10.784;2023-05-19T13:23:08;16.10;99.90
3709;DHT22;1870;53.996;10.784;2023-05-19T13:25:34;16.10;99.90
3709;DHT22;1870;53.996;10.784;2023-05-19T13:28:01;16.10;99.90
3709;DHT22;1870;53.996;10.784;2023-05-19T13:30:30;16.20;99.90
3709;DHT22;1870;53.996;10.784;2023-05-19T13:32:56;16.20;99.90
3709;DHT22;1870;53.996;10.784;2023-05-19T13:35:22;16.20;99.90
3709;DHT22;1870;53.996;10.784;2023-05-19T13:37:48;16.20;99.90
3709;DHT22;1870;53.996;10.784;2023-05-19T13:40:14;16.30;99.90
3709;DHT22;1870;53.996;10.784;2023-05-19T13:42:41;16.20;99.90
3709;DHT22;1870;53.996;10.784;2023-05-19T13:45:07;16.30;99.90
3709;DHT22;1870;53.996;10.784;2023-05-19T13:47:33;16.40;99.90
3709;DHT22;1870;53.996;10.784;2023-05-19T13:49:59;16.40;99.90
3709;DHT22;1870;53.996;10.784;2023-05-19T13:52:25;16.50;99.90
3709;DHT22;1870;53.996;10.784;2023-05-19T13:54:51;16.50;99.90
3709;DHT22;1870;53.996;10.784;2023-05-19T13:57:19;16.60;99.90
3709;DHT22;1870;53.996;10.784;2023-05-19T13:59:44;16.60;99.90
3709;DHT22;1870;53.996;10.784;2023-05-19T14:02:10;16.60;99.90
3709;DHT22;1870;53.996;10.784;2023-05-19T14:04:36;16.60;99.90
3709;DHT22;1870;53.996;10.784;2023-05-19T14:07:03;16.60;99.90
3709;DHT22;1870;53.996;10.784;2023-05-19T14:09:29;16.70;99.90
3709;DHT22;1870;53.996;10.784;2023-05-19T14:11:55;16.60;99.90
3709;DHT22;1870;53.996;10.784;2023-05-19T14:14:21;16.60;99.90
3709;DHT22;1870;53.996;10.784;2023-05-19T14:16:47;16.70;99.90
3709;DHT22;1870;53.996;10.784;2023-05-19T14:19:13;16.80;99.90
3709;DHT22;1870;53.996;10.784;2023-05-19T14:21:39;16.90;99.90
3709;DHT22;1870;53.996;10.784;2023-05-19T14:24:04;17.00;99.90
3709;DHT22;1870;53.996;10.784;2023-05-19T14:26:30;17.00;99.90
3709;DHT22;1870;53.996;10.784;2023-05-19T14:28:56;16.90;99.90
3709;DHT22;1870;53.996;10.784;2023-05-19T14:31:22;16.80;99.90
3709;DHT22;1870;53.996;10.784;2023-05-19T14:33:47;16.70;99.90
3709;DHT22;1870;53.996;10.784;2023-05-19T14:36:13;16.90;99.90
3709;DHT22;1870;53.996;10.784;2023-05-19T14:38:39;16.80;99.90
3709;DHT22;1870;53.996;10.784;2023-05-19T14:41:05;16.70;99.90
3709;DHT22;1870;53.996;10.784;2023-05-19T14:43:31;16.50;99.90
3709;DHT22;1870;53.996;10.784;2023-05-19T14:45:59;16.40;99.90
3709;DHT22;1870;53.996;10.784;2023-05-19T14:48:25;16.50;99.90
3709;DHT22;1870;53.996;10.784;2023-05-19T14:50:51;16.40;99.90
3709;DHT22;1870;53.996;10.784;2023-05-19T14:53:17;16.40;99.90
3709;DHT22;1870;53.996;10.784;2023-05-19T14:55:43;16.40;99.90
3709;DHT22;1870;53.996;10.784;2023-05-19T14:58:09;16.50;99.90
3709;DHT22;1870;53.996;10.784;2023-05-19T15:00:34;16.60;99.90
3709;DHT22;1870;53.996;10.784;2023-05-19T15:03:00;16.90;99.90
3709;DHT22;1870;53.996;10.784;2023-05-19T15:05:25;17.00;99.90
3709;DHT22;1870;53.996;10.784;2023-05-19T15:07:51;17.30;99.90
3709;DHT22;1870;53.996;10.784;2023-05-19T15:10:17;17.80;99.90
3709;DHT22;1870;53.996;10.784;2023-05-19T15:12:49;18.10;99.90
3709;DHT22;1870;53.996;10.784;2023-05-19T15:15:15;18.30;99.90
3709;DHT22;1870;53.996;10.784;2023-05-19T15:17:41;18.20;99.90
3709;DHT22;1870;53.996;10.784;2023-05-19T15:20:07;18.10;99.90
3709;DHT22;1870;53.996;10.784;2023-05-19T15:22:33;17.90;99.90
3709;DHT22;1870;53.996;10.784;2023-05-19T15:24:59;17.90;99.90
3709;DHT22;1870;53.996;10.784;2023-05-19T15:27:25;17.70;99.90
3709;DHT22;1870;53.996;10.784;2023-05-19T15:29:51;17.60;99.90
3709;DHT22;1870;53.996;10.784;2023-05-19T15:32:17;17.40;99.90
3709;DHT22;1870;53.996;10.784;2023-05-19T15:34:43;17.20;99.90
3709;DHT22;1870;53.996;10.784;2023-05-19T15:37:08;17.10;99.90
3709;DHT22;1870;53.996;10.784;2023-05-19T15:39:34;17.00;99.90
3709;DHT22;1870;53.996;10.784;2023-05-19T15:42:00;17.20;99.90
3709;DHT22;1870;53.996;10.784;2023-05-19T15:44:25;17.20;99.90
3709;DHT22;1870;53.996;10.784;2023-05-19T15:46:51;17.20;99.90
3709;DHT22;1870;53.996;10.784;2023-05-19T15:49:17;17.20;99.90
3709;DHT22;1870;53.996;10.784;2023-05-19T15:51:43;17.30;99.90
3709;DHT22;1870;53.996;10.784;2023-05-19T15:54:10;17.30;99.90
3709;DHT22;1870;53.996;10.784;2023-05-19T15:56:35;17.20;99.90
3709;DHT22;1870;53.996;10.784;2023-05-19T15:59:01;17.40;99.90
3709;DHT22;1870;53.996;10.784;2023-05-19T16:01:27;17.40;99.90